sensor_id;sensor_type;location;lat;lon;timestamp;P1;durP1;ratioP1;P2;durP2;ratioP2
6095;SDS011;25081;42.698;23.298;2024-03-29T00:01:49;5.53;;;2.10;;
6095;SDS011;25081;42.698;23.298;2024-03-29T00:03:58;4.23;;;1.80;;
6095;SDS011;25081;42.698;23.298;2024-03-29T00:06:07;4.03;;;1.73;;
6095;SDS011;25081;42.698;23.298;2024-03-29T00:08:15;4.83;;;2.20;;
6095;SDS011;25081;42.698;23.298;2024-03-29T00:10:24;5.23;;;2.03;;
6095;SDS011;25081;42.698;23.298;2024-03-29T00:12:32;1.93;;;1.57;;
6095;SDS011;25081;42.698;23.298;2024-03-29T00:14:41;4.43;;;1.60;;
6095;SDS011;25081;42.698;23.298;2024-03-29T00:16:50;3.50;;;1.80;;
6095;SDS011;25081;42.698;23.298;2024-03-29T00:18:59;6.80;;;1.87;;
6095;SDS011;25081;42.698;23.298;2024-03-29T00:21:07;3.30;;;1.80;;
6095;SDS011;25081;42.698;23.298;2024-03-29T00:23:16;4.00;;;2.03;;
6095;SDS011;25081;42.698;23.298;2024-03-29T00:25:24;5.70;;;1.90;;
6095;SDS011;25081;42.698;23.298;2024-03-29T00:27:33;4.30;;;1.43;;
6095;SDS011;25081;42.698;23.298;2024-03-29T00:29:42;2.70;;;1.53;;
6095;SDS011;25081;42.698;23.298;2024-03-29T00:31:51;5.70;;;1.80;;
6095;SDS011;25081;42.698;23.298;2024-03-29T00:34:00;5.23;;;1.60;;
6095;SDS011;25081;42.698;23.298;2024-03-29T00:36:09;3.10;;;1.50;;
6095;SDS011;25081;42.698;23.298;2024-03-29T00:38:17;2.53;;;1.70;;
6095;SDS011;25081;42.698;23.298;2024-03-29T00:40:26;3.90;;;1.87;;
6095;SDS011;25081;42.698;23.298;2024-03-29T00:42:34;3.20;;;1.47;;
6095;SDS011;25081;42.698;23.298;2024-03-29T00:44:43;2.93;;;1.50;;
6095;SDS011;25081;42.698;23.298;2024-03-29T00:46:52;3.33;;;1.60;;
6095;SDS011;25081;42.698;23.298;2024-03-29T00:49:00;2.67;;;1.60;;
6095;SDS011;25081;42.698;23.298;2024-03-29T00:51:09;3.40;;;1.87;;
6095;SDS011;25081;42.698;23.298;2024-03-29T00:53:17;2.37;;;1.67;;
6095;SDS011;25081;42.698;23.298;2024-03-29T00:55:26;3.30;;;1.60;;
6095;SDS011;25081;42.698;23.298;2024-03-29T00:57:35;2.03;;;1.30;;
6095;SDS011;25081;42.698;23.298;2024-03-29T00:59:44;3.17;;;1.43;;
6095;SDS011;25081;42.698;23.298;2024-03-29T01:01:52;5.50;;;1.77;;
6095;SDS011;25081;42.698;23.298;2024-03-29T01:04:01;3.03;;;1.70;;
6095;SDS011;25081;42.698;23.298;2024-03-29T01:06:10;3.70;;;1.50;;
6095;SDS011;25081;42.698;23.298;2024-03-29T01:08:18;4.27;;;1.40;;
6095;SDS011;25081;42.698;23.298;2024-03-29T01:10:27;2.57;;;1.73;;
6095;SDS011;25081;42.698;23.298;2024-03-29T01:12:36;2.90;;;1.33;;
6095;SDS011;25081;42.698;23.298;2024-03-29T01:14:45;3.77;;;1.80;;
6095;SDS011;25081;42.698;23.298;2024-03-29T01:16:53;2.50;;;1.30;;
6095;SDS011;25081;42.698;23.298;2024-03-29T01:19:02;2.20;;;1.40;;
6095;SDS011;25081;42.698;23.298;2024-03-29T01:21:11;5.57;;;1.50;;
6095;SDS011;25081;42.698;23.298;2024-03-29T01:23:19;2.20;;;1.40;;
6095;SDS011;25081;42.698;23.298;2024-03-29T01:25:28;3.27;;;1.60;;
6095;SDS011;25081;42.698;23.298;2024-03-29T01:27:37;3.80;;;1.53;;
6095;SDS011;25081;42.698;23.298;2024-03-29T01:29:46;3.23;;;1.60;;
6095;SDS011;25081;42.698;23.298;2024-03-29T01:31:54;4.90;;;1.67;;
6095;SDS011;25081;42.698;23.298;2024-03-29T01:34:03;3.50;;;1.43;;
6095;SDS011;25081;42.698;23.298;2024-03-29T01:36:12;3.40;;;1.70;;
6095;SDS011;25081;42.698;23.298;2024-03-29T01:38:20;3.97;;;1.83;;
6095;SDS011;25081;42.698;23.298;2024-03-29T01:40:29;2.37;;;1.27;;
6095;SDS011;25081;42.698;23.298;2024-03-29T01:42:38;2.90;;;1.33;;
6095;SDS011;25081;42.698;23.298;2024-03-29T01:44:46;3.20;;;1.43;;
6095;SDS011;25081;42.698;23.298;2024-03-29T01:46:55;2.97;;;1.40;;
6095;SDS011;25081;42.698;23.298;2024-03-29T01:49:04;3.57;;;1.40;;
6095;SDS011;25081;42.698;23.298;2024-03-29T01:51:13;2.20;;;1.43;;
6095;SDS011;25081;42.698;23.298;2024-03-29T01:53:21;4.50;;;2.23;;
6095;SDS011;25081;42.698;23.298;2024-03-29T01:55:30;2.90;;;1.40;;
6095;SDS011;25081;42.698;23.298;2024-03-29T01:57:39;3.67;;;1.47;;
6095;SDS011;25081;42.698;23.298;2024-03-29T01:59:48;7.17;;;1.50;;
6095;SDS011;25081;42.698;23.298;2024-03-29T02:01:56;1.80;;;1.00;;
6095;SDS011;25081;42.698;23.298;2024-03-29T02:04:05;4.50;;;1.60;;
6095;SDS011;25081;42.698;23.298;2024-03-29T02:06:14;2.90;;;1.47;;
6095;SDS011;25081;42.698;23.298;2024-03-29T02:08:23;5.77;;;2.07;;
6095;SDS011;25081;42.698;23.298;2024-03-29T02:10:32;6.10;;;1.60;;
6095;SDS011;25081;42.698;23.298;2024-03-29T02:12:40;3.60;;;1.63;;
6095;SDS011;25081;42.698;23.298;2024-03-29T02:14:49;4.73;;;1.60;;
6095;SDS011;25081;42.698;23.298;2024-03-29T02:16:58;4.17;;;1.47;;
6095;SDS011;25081;42.698;23.298;2024-03-29T02:19:06;4.37;;;1.57;;
6095;SDS011;25081;42.698;23.298;2024-03-29T02:21:15;2.60;;;1.40;;
6095;SDS011;25081;42.698;23.298;2024-03-29T02:23:26;3.53;;;1.60;;
6095;SDS011;25081;42.698;23.298;2024-03-29T02:25:33;3.93;;;1.87;;
6095;SDS011;25081;42.698;23.298;2024-03-29T02:27:42;4.03;;;1.80;;
6095;SDS011;25081;42.698;23.298;2024-03-29T02:29:51;3.50;;;1.40;;
6095;SDS011;25081;42.698;23.298;2024-03-29T02:31:59;5.27;;;1.90;;
6095;SDS011;25081;42.698;23.298;2024-03-29T02:34:08;3.10;;;1.23;;
6095;SDS011;25081;42.698;23.298;2024-03-29T02:36:17;4.83;;;2.33;;
6095;SDS011;25081;42.698;23.298;2024-03-29T02:38:26;2.60;;;1.40;;
6095;SDS011;25081;42.698;23.298;2024-03-29T02:40:34;3.57;;;1.70;;
6095;SDS011;25081;42.698;23.298;2024-03-29T02:42:43;2.10;;;1.40;;
6095;SDS011;25081;42.698;23.298;2024-03-29T02:44:52;5.40;;;1.80;;
6095;SDS011;25081;42.698;23.298;2024-03-29T02:47:00;3.40;;;1.80;;
6095;SDS011;25081;42.698;23.298;2024-03-29T02:49:09;5.03;;;1.50;;
6095;SDS011;25081;42.698;23.298;2024-03-29T02:51:18;2.90;;;1.60;;
6095;SDS011;25081;42.698;23.298;2024-03-29T02:53:27;3.40;;;1.43;;
6095;SDS011;25081;42.698;23.298;2024-03-29T02:55:36;4.50;;;2.30;;
6095;SDS011;25081;42.698;23.298;2024-03-29T02:57:45;3.47;;;1.57;;
6095;SDS011;25081;42.698;23.298;2024-03-29T02:59:54;4.15;;;1.75;;
6095;SDS011;25081;42.698;23.298;2024-03-29T03:02:03;3.47;;;1.70;;
6095;SDS011;25081;42.698;23.298;2024-03-29T03:04:12;7.93;;;2.10;;
6095;SDS011;25081;42.698;23.298;2024-03-29T03:06:21;9.53;;;2.30;;
6095;SDS011;25081;42.698;23.298;2024-03-29T03:08:29;4.50;;;1.63;;
6095;SDS011;25081;42.698;23.298;2024-03-29T03:10:56;5.10;;;1.90;;
6095;SDS011;25081;42.698;23.298;2024-03-29T03:13:06;8.47;;;2.00;;
6095;SDS011;25081;42.698;23.298;2024-03-29T03:15:15;3.60;;;1.90;;
6095;SDS011;25081;42.698;23.298;2024-03-29T03:17:23;4.20;;;2.00;;
6095;SDS011;25081;42.698;23.298;2024-03-29T03:19:32;6.30;;;1.97;;
6095;SDS011;25081;42.698;23.298;2024-03-29T03:21:41;6.07;;;1.90;;
6095;SDS011;25081;42.698;23.298;2024-03-29T03:23:50;6.90;;;2.40;;
6095;SDS011;25081;42.698;23.298;2024-03-29T03:25:59;14.60;;;4.00;;
6095;SDS011;25081;42.698;23.298;2024-03-29T03:28:07;7.53;;;2.50;;
6095;SDS011;25081;42.698;23.298;2024-03-29T03:30:16;4.53;;;2.03;;
6095;SDS011;25081;42.698;23.298;2024-03-29T03:32:25;6.80;;;2.33;;
6095;SDS011;25081;42.698;23.298;2024-03-29T03:34:34;5.17;;;2.83;;
6095;SDS011;25081;42.698;23.298;2024-03-29T03:36:43;7.47;;;2.37;;
6095;SDS011;25081;42.698;23.298;2024-03-29T03:38:51;7.10;;;2.97;;
6095;SDS011;25081;42.698;23.298;2024-03-29T03:41:00;4.63;;;1.90;;
6095;SDS011;25081;42.698;23.298;2024-03-29T03:43:09;6.45;;;2.72;;
6095;SDS011;25081;42.698;23.298;2024-03-29T03:45:18;8.33;;;3.60;;
6095;SDS011;25081;42.698;23.298;2024-03-29T03:47:26;6.10;;;2.70;;
6095;SDS011;25081;42.698;23.298;2024-03-29T03:49:35;4.70;;;2.37;;
6095;SDS011;25081;42.698;23.298;2024-03-29T03:51:44;9.53;;;3.27;;
6095;SDS011;25081;42.698;23.298;2024-03-29T03:53:53;4.10;;;2.13;;
6095;SDS011;25081;42.698;23.298;2024-03-29T03:56:01;3.60;;;2.40;;
6095;SDS011;25081;42.698;23.298;2024-03-29T03:58:11;3.55;;;1.95;;
6095;SDS011;25081;42.698;23.298;2024-03-29T04:00:20;8.10;;;3.05;;
6095;SDS011;25081;42.698;23.298;2024-03-29T04:02:28;14.33;;;3.10;;
6095;SDS011;25081;42.698;23.298;2024-03-29T04:04:37;17.80;;;3.50;;
6095;SDS011;25081;42.698;23.298;2024-03-29T04:06:46;19.07;;;7.28;;
6095;SDS011;25081;42.698;23.298;2024-03-29T04:08:55;5.50;;;3.30;;
6095;SDS011;25081;42.698;23.298;2024-03-29T04:11:04;9.30;;;3.07;;
6095;SDS011;25081;42.698;23.298;2024-03-29T04:13:12;7.90;;;2.50;;
6095;SDS011;25081;42.698;23.298;2024-03-29T04:15:21;13.80;;;2.30;;
6095;SDS011;25081;42.698;23.298;2024-03-29T04:17:30;5.33;;;2.50;;
6095;SDS011;25081;42.698;23.298;2024-03-29T04:19:39;4.13;;;2.20;;
6095;SDS011;25081;42.698;23.298;2024-03-29T04:21:47;6.60;;;2.47;;
6095;SDS011;25081;42.698;23.298;2024-03-29T04:23:56;5.10;;;2.40;;
6095;SDS011;25081;42.698;23.298;2024-03-29T04:26:05;11.00;;;3.77;;
6095;SDS011;25081;42.698;23.298;2024-03-29T04:28:13;8.47;;;3.07;;
6095;SDS011;25081;42.698;23.298;2024-03-29T04:30:22;6.60;;;2.50;;
6095;SDS011;25081;42.698;23.298;2024-03-29T04:32:31;7.17;;;2.97;;
6095;SDS011;25081;42.698;23.298;2024-03-29T04:34:40;7.13;;;3.00;;
6095;SDS011;25081;42.698;23.298;2024-03-29T04:36:48;7.77;;;3.03;;
6095;SDS011;25081;42.698;23.298;2024-03-29T04:38:57;9.57;;;3.33;;
6095;SDS011;25081;42.698;23.298;2024-03-29T04:41:06;43.83;;;21.60;;
6095;SDS011;25081;42.698;23.298;2024-03-29T04:43:14;26.80;;;13.67;;
6095;SDS011;25081;42.698;23.298;2024-03-29T04:45:23;28.27;;;5.65;;
6095;SDS011;25081;42.698;23.298;2024-03-29T04:47:32;20.37;;;4.03;;
6095;SDS011;25081;42.698;23.298;2024-03-29T04:49:41;14.33;;;4.17;;
6095;SDS011;25081;42.698;23.298;2024-03-29T04:51:50;24.53;;;4.47;;
6095;SDS011;25081;42.698;23.298;2024-03-29T04:53:58;17.70;;;4.83;;
6095;SDS011;25081;42.698;23.298;2024-03-29T04:56:07;26.50;;;5.53;;
6095;SDS011;25081;42.698;23.298;2024-03-29T04:58:16;12.70;;;4.93;;
6095;SDS011;25081;42.698;23.298;2024-03-29T05:00:25;14.13;;;5.17;;
6095;SDS011;25081;42.698;23.298;2024-03-29T05:02:34;20.97;;;6.17;;
6095;SDS011;25081;42.698;23.298;2024-03-29T05:04:42;25.70;;;8.38;;
6095;SDS011;25081;42.698;23.298;2024-03-29T05:06:51;27.23;;;7.40;;
6095;SDS011;25081;42.698;23.298;2024-03-29T05:09:00;8.23;;;3.40;;
6095;SDS011;25081;42.698;23.298;2024-03-29T05:11:09;9.40;;;4.10;;
6095;SDS011;25081;42.698;23.298;2024-03-29T05:13:18;9.70;;;4.30;;
6095;SDS011;25081;42.698;23.298;2024-03-29T05:15:27;11.43;;;4.20;;
6095;SDS011;25081;42.698;23.298;2024-03-29T05:17:35;16.03;;;5.30;;
6095;SDS011;25081;42.698;23.298;2024-03-29T05:19:44;15.80;;;5.33;;
6095;SDS011;25081;42.698;23.298;2024-03-29T05:21:53;16.60;;;5.07;;
6095;SDS011;25081;42.698;23.298;2024-03-29T05:24:01;22.00;;;6.83;;
6095;SDS011;25081;42.698;23.298;2024-03-29T05:26:10;17.80;;;6.53;;
6095;SDS011;25081;42.698;23.298;2024-03-29T05:28:19;17.10;;;6.80;;
6095;SDS011;25081;42.698;23.298;2024-03-29T05:30:28;10.17;;;4.47;;
6095;SDS011;25081;42.698;23.298;2024-03-29T05:32:36;15.37;;;5.57;;
6095;SDS011;25081;42.698;23.298;2024-03-29T05:34:45;13.90;;;5.73;;
6095;SDS011;25081;42.698;23.298;2024-03-29T05:36:54;17.20;;;7.10;;
6095;SDS011;25081;42.698;23.298;2024-03-29T05:39:03;13.53;;;5.03;;
6095;SDS011;25081;42.698;23.298;2024-03-29T05:41:11;12.20;;;4.80;;
6095;SDS011;25081;42.698;23.298;2024-03-29T05:43:20;17.10;;;5.80;;
6095;SDS011;25081;42.698;23.298;2024-03-29T05:45:29;14.63;;;5.50;;
6095;SDS011;25081;42.698;23.298;2024-03-29T05:47:38;11.03;;;6.10;;
6095;SDS011;25081;42.698;23.298;2024-03-29T05:49:47;14.93;;;6.00;;
6095;SDS011;25081;42.698;23.298;2024-03-29T05:51:55;15.83;;;8.43;;
6095;SDS011;25081;42.698;23.298;2024-03-29T05:54:04;15.90;;;8.28;;
6095;SDS011;25081;42.698;23.298;2024-03-29T05:56:13;19.70;;;7.50;;
6095;SDS011;25081;42.698;23.298;2024-03-29T05:58:22;13.03;;;5.67;;
6095;SDS011;25081;42.698;23.298;2024-03-29T06:00:30;15.73;;;5.90;;
6095;SDS011;25081;42.698;23.298;2024-03-29T06:02:39;19.47;;;4.97;;
6095;SDS011;25081;42.698;23.298;2024-03-29T06:04:48;21.03;;;9.97;;
6095;SDS011;25081;42.698;23.298;2024-03-29T06:06:57;13.57;;;6.70;;
6095;SDS011;25081;42.698;23.298;2024-03-29T06:09:06;13.50;;;5.60;;
6095;SDS011;25081;42.698;23.298;2024-03-29T06:11:14;16.03;;;4.47;;
6095;SDS011;25081;42.698;23.298;2024-03-29T06:13:23;11.13;;;4.57;;
6095;SDS011;25081;42.698;23.298;2024-03-29T06:15:36;12.00;;;4.40;;
6095;SDS011;25081;42.698;23.298;2024-03-29T06:18:04;8.73;;;4.70;;
6095;SDS011;25081;42.698;23.298;2024-03-29T06:20:13;28.87;;;12.30;;
6095;SDS011;25081;42.698;23.298;2024-03-29T06:22:21;20.67;;;7.20;;
6095;SDS011;25081;42.698;23.298;2024-03-29T06:24:30;18.57;;;6.40;;
6095;SDS011;25081;42.698;23.298;2024-03-29T06:26:39;13.43;;;6.00;;
6095;SDS011;25081;42.698;23.298;2024-03-29T06:28:47;14.07;;;3.60;;
6095;SDS011;25081;42.698;23.298;2024-03-29T06:30:56;10.83;;;4.80;;
6095;SDS011;25081;42.698;23.298;2024-03-29T06:33:05;7.33;;;2.90;;
6095;SDS011;25081;42.698;23.298;2024-03-29T06:35:13;5.80;;;2.50;;
6095;SDS011;25081;42.698;23.298;2024-03-29T06:37:22;8.17;;;2.50;;
6095;SDS011;25081;42.698;23.298;2024-03-29T06:39:32;4.90;;;2.37;;
6095;SDS011;25081;42.698;23.298;2024-03-29T06:41:40;9.77;;;2.00;;
6095;SDS011;25081;42.698;23.298;2024-03-29T06:43:49;4.70;;;1.60;;
6095;SDS011;25081;42.698;23.298;2024-03-29T06:45:58;6.50;;;1.93;;
6095;SDS011;25081;42.698;23.298;2024-03-29T06:48:07;4.10;;;3.30;;
6095;SDS011;25081;42.698;23.298;2024-03-29T06:50:16;6.47;;;2.10;;
6095;SDS011;25081;42.698;23.298;2024-03-29T06:52:24;4.37;;;1.90;;
6095;SDS011;25081;42.698;23.298;2024-03-29T06:54:33;5.83;;;1.67;;
6095;SDS011;25081;42.698;23.298;2024-03-29T06:56:42;7.97;;;2.20;;
6095;SDS011;25081;42.698;23.298;2024-03-29T06:58:50;5.80;;;1.60;;
6095;SDS011;25081;42.698;23.298;2024-03-29T07:00:59;4.70;;;1.97;;
6095;SDS011;25081;42.698;23.298;2024-03-29T07:03:08;5.07;;;2.13;;
6095;SDS011;25081;42.698;23.298;2024-03-29T07:05:16;4.23;;;2.10;;
6095;SDS011;25081;42.698;23.298;2024-03-29T07:07:25;8.13;;;2.77;;
6095;SDS011;25081;42.698;23.298;2024-03-29T07:09:34;3.10;;;1.97;;
6095;SDS011;25081;42.698;23.298;2024-03-29T07:11:43;4.73;;;1.50;;
6095;SDS011;25081;42.698;23.298;2024-03-29T07:13:51;2.67;;;1.60;;
6095;SDS011;25081;42.698;23.298;2024-03-29T07:16:00;5.10;;;1.77;;
6095;SDS011;25081;42.698;23.298;2024-03-29T07:18:09;4.60;;;1.60;;
6095;SDS011;25081;42.698;23.298;2024-03-29T07:20:17;6.73;;;2.30;;
6095;SDS011;25081;42.698;23.298;2024-03-29T07:22:26;5.73;;;2.00;;
6095;SDS011;25081;42.698;23.298;2024-03-29T07:24:35;4.27;;;1.83;;
6095;SDS011;25081;42.698;23.298;2024-03-29T07:26:43;3.20;;;1.40;;
6095;SDS011;25081;42.698;23.298;2024-03-29T07:28:52;3.60;;;1.43;;
6095;SDS011;25081;42.698;23.298;2024-03-29T07:31:05;3.87;;;1.47;;
6095;SDS011;25081;42.698;23.298;2024-03-29T07:33:14;6.20;;;1.93;;
6095;SDS011;25081;42.698;23.298;2024-03-29T07:35:23;4.97;;;1.57;;
6095;SDS011;25081;42.698;23.298;2024-03-29T07:37:32;5.47;;;1.97;;
6095;SDS011;25081;42.698;23.298;2024-03-29T07:39:40;3.27;;;1.70;;
6095;SDS011;25081;42.698;23.298;2024-03-29T07:41:49;7.50;;;1.67;;
6095;SDS011;25081;42.698;23.298;2024-03-29T07:43:58;6.30;;;1.60;;
6095;SDS011;25081;42.698;23.298;2024-03-29T07:46:06;4.93;;;1.80;;
6095;SDS011;25081;42.698;23.298;2024-03-29T07:48:16;4.57;;;1.63;;
6095;SDS011;25081;42.698;23.298;2024-03-29T07:50:24;5.10;;;1.83;;
6095;SDS011;25081;42.698;23.298;2024-03-29T07:52:33;7.53;;;2.30;;
6095;SDS011;25081;42.698;23.298;2024-03-29T07:54:41;8.73;;;1.80;;
6095;SDS011;25081;42.698;23.298;2024-03-29T07:56:50;6.23;;;1.87;;
6095;SDS011;25081;42.698;23.298;2024-03-29T07:58:59;4.07;;;1.80;;
6095;SDS011;25081;42.698;23.298;2024-03-29T08:01:07;4.03;;;1.90;;
6095;SDS011;25081;42.698;23.298;2024-03-29T08:03:16;4.80;;;1.83;;
6095;SDS011;25081;42.698;23.298;2024-03-29T08:05:25;4.70;;;2.50;;
6095;SDS011;25081;42.698;23.298;2024-03-29T08:07:34;5.57;;;3.13;;
6095;SDS011;25081;42.698;23.298;2024-03-29T08:09:42;15.57;;;9.83;;
6095;SDS011;25081;42.698;23.298;2024-03-29T08:11:51;8.07;;;3.20;;
6095;SDS011;25081;42.698;23.298;2024-03-29T08:14:00;10.13;;;3.87;;
6095;SDS011;25081;42.698;23.298;2024-03-29T08:16:08;11.30;;;4.40;;
6095;SDS011;25081;42.698;23.298;2024-03-29T08:18:17;9.07;;;2.63;;
6095;SDS011;25081;42.698;23.298;2024-03-29T08:20:26;6.60;;;2.70;;
6095;SDS011;25081;42.698;23.298;2024-03-29T08:22:34;4.30;;;1.70;;
6095;SDS011;25081;42.698;23.298;2024-03-29T08:24:43;5.87;;;2.30;;
6095;SDS011;25081;42.698;23.298;2024-03-29T08:26:52;7.63;;;2.60;;
6095;SDS011;25081;42.698;23.298;2024-03-29T08:29:01;4.23;;;1.70;;
6095;SDS011;25081;42.698;23.298;2024-03-29T08:31:09;3.20;;;1.40;;
6095;SDS011;25081;42.698;23.298;2024-03-29T08:33:18;7.83;;;3.73;;
6095;SDS011;25081;42.698;23.298;2024-03-29T08:35:26;5.53;;;2.87;;
6095;SDS011;25081;42.698;23.298;2024-03-29T08:37:35;6.43;;;2.57;;
6095;SDS011;25081;42.698;23.298;2024-03-29T08:39:44;8.43;;;2.00;;
6095;SDS011;25081;42.698;23.298;2024-03-29T08:41:52;5.37;;;1.50;;
6095;SDS011;25081;42.698;23.298;2024-03-29T08:44:01;9.53;;;2.67;;
6095;SDS011;25081;42.698;23.298;2024-03-29T08:46:11;6.07;;;2.47;;
6095;SDS011;25081;42.698;23.298;2024-03-29T08:48:19;6.60;;;2.50;;
6095;SDS011;25081;42.698;23.298;2024-03-29T08:50:28;4.70;;;2.07;;
6095;SDS011;25081;42.698;23.298;2024-03-29T08:52:38;3.63;;;1.93;;
6095;SDS011;25081;42.698;23.298;2024-03-29T08:54:46;16.60;;;8.10;;
6095;SDS011;25081;42.698;23.298;2024-03-29T08:56:55;12.70;;;6.27;;
6095;SDS011;25081;42.698;23.298;2024-03-29T08:59:03;4.63;;;2.60;;
6095;SDS011;25081;42.698;23.298;2024-03-29T09:01:12;3.90;;;2.20;;
6095;SDS011;25081;42.698;23.298;2024-03-29T09:03:21;14.20;;;8.40;;
6095;SDS011;25081;42.698;23.298;2024-03-29T09:05:30;15.47;;;9.80;;
6095;SDS011;25081;42.698;23.298;2024-03-29T09:07:38;4.93;;;1.80;;
6095;SDS011;25081;42.698;23.298;2024-03-29T09:09:48;2.80;;;1.30;;
6095;SDS011;25081;42.698;23.298;2024-03-29T09:11:57;2.43;;;1.40;;
6095;SDS011;25081;42.698;23.298;2024-03-29T09:14:06;5.20;;;1.93;;
6095;SDS011;25081;42.698;23.298;2024-03-29T09:16:14;4.10;;;1.70;;
6095;SDS011;25081;42.698;23.298;2024-03-29T09:18:23;2.50;;;1.43;;
6095;SDS011;25081;42.698;23.298;2024-03-29T09:20:32;3.70;;;1.37;;
6095;SDS011;25081;42.698;23.298;2024-03-29T09:22:40;4.33;;;2.17;;
6095;SDS011;25081;42.698;23.298;2024-03-29T09:24:49;3.53;;;1.33;;
6095;SDS011;25081;42.698;23.298;2024-03-29T09:26:58;4.93;;;1.60;;
6095;SDS011;25081;42.698;23.298;2024-03-29T09:29:07;2.77;;;1.47;;
6095;SDS011;25081;42.698;23.298;2024-03-29T09:31:15;3.70;;;1.50;;
6095;SDS011;25081;42.698;23.298;2024-03-29T09:33:24;6.47;;;1.40;;
6095;SDS011;25081;42.698;23.298;2024-03-29T09:35:33;4.37;;;1.60;;
6095;SDS011;25081;42.698;23.298;2024-03-29T09:37:41;6.30;;;1.70;;
6095;SDS011;25081;42.698;23.298;2024-03-29T09:39:50;3.77;;;1.30;;
6095;SDS011;25081;42.698;23.298;2024-03-29T09:41:59;3.90;;;1.63;;
6095;SDS011;25081;42.698;23.298;2024-03-29T09:44:07;3.63;;;1.43;;
6095;SDS011;25081;42.698;23.298;2024-03-29T09:46:16;9.67;;;2.17;;
6095;SDS011;25081;42.698;23.298;2024-03-29T09:48:25;6.30;;;2.00;;
6095;SDS011;25081;42.698;23.298;2024-03-29T09:50:34;3.70;;;1.70;;
6095;SDS011;25081;42.698;23.298;2024-03-29T09:52:42;5.03;;;1.80;;
6095;SDS011;25081;42.698;23.298;2024-03-29T09:54:51;3.23;;;1.30;;
6095;SDS011;25081;42.698;23.298;2024-03-29T09:57:00;4.10;;;1.70;;
6095;SDS011;25081;42.698;23.298;2024-03-29T09:59:09;4.90;;;1.73;;
6095;SDS011;25081;42.698;23.298;2024-03-29T10:01:18;4.43;;;1.70;;
6095;SDS011;25081;42.698;23.298;2024-03-29T10:03:26;2.77;;;1.33;;
6095;SDS011;25081;42.698;23.298;2024-03-29T10:05:36;8.03;;;1.80;;
6095;SDS011;25081;42.698;23.298;2024-03-29T10:07:44;5.40;;;2.10;;
6095;SDS011;25081;42.698;23.298;2024-03-29T10:09:53;4.63;;;1.70;;
6095;SDS011;25081;42.698;23.298;2024-03-29T10:12:02;3.83;;;1.70;;
6095;SDS011;25081;42.698;23.298;2024-03-29T10:14:11;4.40;;;1.90;;
6095;SDS011;25081;42.698;23.298;2024-03-29T10:16:20;4.70;;;1.57;;
6095;SDS011;25081;42.698;23.298;2024-03-29T10:18:29;7.33;;;1.80;;
6095;SDS011;25081;42.698;23.298;2024-03-29T10:20:37;3.93;;;1.50;;
6095;SDS011;25081;42.698;23.298;2024-03-29T10:22:46;3.03;;;1.77;;
6095;SDS011;25081;42.698;23.298;2024-03-29T10:24:56;4.43;;;1.60;;
6095;SDS011;25081;42.698;23.298;2024-03-29T10:27:05;3.50;;;1.73;;
6095;SDS011;25081;42.698;23.298;2024-03-29T10:29:14;4.07;;;2.07;;
6095;SDS011;25081;42.698;23.298;2024-03-29T10:31:22;4.10;;;1.90;;
6095;SDS011;25081;42.698;23.298;2024-03-29T10:33:31;2.73;;;1.53;;
6095;SDS011;25081;42.698;23.298;2024-03-29T10:35:42;4.53;;;1.90;;
6095;SDS011;25081;42.698;23.298;2024-03-29T10:37:50;4.90;;;1.67;;
6095;SDS011;25081;42.698;23.298;2024-03-29T10:40:01;5.27;;;2.33;;
6095;SDS011;25081;42.698;23.298;2024-03-29T10:42:11;5.33;;;1.90;;
6095;SDS011;25081;42.698;23.298;2024-03-29T10:44:19;4.77;;;2.10;;
6095;SDS011;25081;42.698;23.298;2024-03-29T10:46:28;6.23;;;1.83;;
6095;SDS011;25081;42.698;23.298;2024-03-29T10:48:36;6.40;;;1.80;;
6095;SDS011;25081;42.698;23.298;2024-03-29T10:50:45;5.90;;;2.50;;
6095;SDS011;25081;42.698;23.298;2024-03-29T10:52:54;7.00;;;2.40;;
6095;SDS011;25081;42.698;23.298;2024-03-29T10:55:02;3.27;;;2.30;;
6095;SDS011;25081;42.698;23.298;2024-03-29T10:57:12;4.63;;;1.60;;
6095;SDS011;25081;42.698;23.298;2024-03-29T10:59:21;6.17;;;2.10;;
6095;SDS011;25081;42.698;23.298;2024-03-29T11:01:29;4.37;;;1.90;;
6095;SDS011;25081;42.698;23.298;2024-03-29T11:03:40;5.77;;;2.10;;
6095;SDS011;25081;42.698;23.298;2024-03-29T11:05:47;6.73;;;1.87;;
6095;SDS011;25081;42.698;23.298;2024-03-29T11:07:56;3.50;;;1.50;;
6095;SDS011;25081;42.698;23.298;2024-03-29T11:10:05;4.93;;;1.60;;
6095;SDS011;25081;42.698;23.298;2024-03-29T11:12:14;3.47;;;1.70;;
6095;SDS011;25081;42.698;23.298;2024-03-29T11:14:26;2.13;;;1.30;;
6095;SDS011;25081;42.698;23.298;2024-03-29T11:16:32;3.73;;;1.63;;
6095;SDS011;25081;42.698;23.298;2024-03-29T11:18:41;6.93;;;2.20;;
6095;SDS011;25081;42.698;23.298;2024-03-29T11:20:50;6.80;;;1.80;;
6095;SDS011;25081;42.698;23.298;2024-03-29T11:22:58;4.90;;;2.23;;
6095;SDS011;25081;42.698;23.298;2024-03-29T11:25:10;4.90;;;2.37;;
6095;SDS011;25081;42.698;23.298;2024-03-29T11:27:22;4.37;;;1.90;;
6095;SDS011;25081;42.698;23.298;2024-03-29T11:29:31;4.50;;;1.50;;
6095;SDS011;25081;42.698;23.298;2024-03-29T11:31:40;7.33;;;2.00;;
6095;SDS011;25081;42.698;23.298;2024-03-29T11:33:48;4.60;;;1.80;;
6095;SDS011;25081;42.698;23.298;2024-03-29T11:35:57;4.07;;;2.00;;
6095;SDS011;25081;42.698;23.298;2024-03-29T11:38:06;3.90;;;1.80;;
6095;SDS011;25081;42.698;23.298;2024-03-29T11:40:15;4.70;;;1.70;;
6095;SDS011;25081;42.698;23.298;2024-03-29T11:42:36;4.07;;;1.73;;
6095;SDS011;25081;42.698;23.298;2024-03-29T11:44:45;6.40;;;2.37;;
6095;SDS011;25081;42.698;23.298;2024-03-29T11:46:54;4.90;;;1.97;;
6095;SDS011;25081;42.698;23.298;2024-03-29T11:49:02;3.87;;;1.53;;
6095;SDS011;25081;42.698;23.298;2024-03-29T11:51:11;5.27;;;2.13;;
6095;SDS011;25081;42.698;23.298;2024-03-29T11:53:20;3.70;;;1.90;;
6095;SDS011;25081;42.698;23.298;2024-03-29T11:55:28;5.67;;;1.63;;
6095;SDS011;25081;42.698;23.298;2024-03-29T11:57:37;4.97;;;1.80;;
6095;SDS011;25081;42.698;23.298;2024-03-29T11:59:46;4.27;;;1.73;;
6095;SDS011;25081;42.698;23.298;2024-03-29T12:01:54;3.23;;;1.70;;
6095;SDS011;25081;42.698;23.298;2024-03-29T12:04:05;5.20;;;1.53;;
6095;SDS011;25081;42.698;23.298;2024-03-29T12:06:14;4.13;;;1.63;;
6095;SDS011;25081;42.698;23.298;2024-03-29T12:08:23;4.83;;;1.43;;
6095;SDS011;25081;42.698;23.298;2024-03-29T12:10:31;3.23;;;1.30;;
6095;SDS011;25081;42.698;23.298;2024-03-29T12:12:40;3.60;;;1.60;;
6095;SDS011;25081;42.698;23.298;2024-03-29T12:14:49;6.80;;;1.93;;
6095;SDS011;25081;42.698;23.298;2024-03-29T12:16:57;5.03;;;2.47;;
6095;SDS011;25081;42.698;23.298;2024-03-29T12:19:06;5.07;;;2.27;;
6095;SDS011;25081;42.698;23.298;2024-03-29T12:21:15;4.37;;;1.70;;
6095;SDS011;25081;42.698;23.298;2024-03-29T12:23:24;5.90;;;1.70;;
6095;SDS011;25081;42.698;23.298;2024-03-29T12:25:33;4.83;;;2.10;;
6095;SDS011;25081;42.698;23.298;2024-03-29T12:27:42;6.47;;;1.80;;
6095;SDS011;25081;42.698;23.298;2024-03-29T12:29:51;4.67;;;1.83;;
6095;SDS011;25081;42.698;23.298;2024-03-29T12:32:00;4.40;;;1.50;;
6095;SDS011;25081;42.698;23.298;2024-03-29T12:34:08;6.50;;;2.03;;
6095;SDS011;25081;42.698;23.298;2024-03-29T12:36:17;5.20;;;1.63;;
6095;SDS011;25081;42.698;23.298;2024-03-29T12:38:26;5.50;;;1.50;;
6095;SDS011;25081;42.698;23.298;2024-03-29T12:40:35;4.73;;;1.50;;
6095;SDS011;25081;42.698;23.298;2024-03-29T12:42:44;3.97;;;1.80;;
6095;SDS011;25081;42.698;23.298;2024-03-29T12:44:52;8.00;;;1.70;;
6095;SDS011;25081;42.698;23.298;2024-03-29T12:47:01;5.23;;;1.73;;
6095;SDS011;25081;42.698;23.298;2024-03-29T12:49:11;5.10;;;1.43;;
6095;SDS011;25081;42.698;23.298;2024-03-29T12:51:20;3.70;;;2.10;;
6095;SDS011;25081;42.698;23.298;2024-03-29T12:53:28;4.83;;;2.27;;
6095;SDS011;25081;42.698;23.298;2024-03-29T12:55:39;3.90;;;2.07;;